Stations météo

Publicité
Karlsruhe/Baden-Baden, Allemagne (10722): Température de l'air & dewpoint: 16.09.2018 16:00:00 - 22.09.2018 16:00:00 (CEST)Karlsruhe/Baden-Baden, Allemagne (10722): Vitesse du vent: 16.09.2018 16:00:00 - 22.09.2018 16:00:00 (CEST)Karlsruhe/Baden-Baden, Allemagne (10722): Direction du vent: 16.09.2018 16:00:00 - 22.09.2018 16:00:00 (CEST)Karlsruhe/Baden-Baden, Allemagne (10722): visibility: 16.09.2018 16:00:00 - 22.09.2018 16:00:00 (CEST)
Date & Time tt [°C] td [°C] ff [km/h] ff [knt] dd vv [km]
22.09.2018 16:00:00 18,0 5,0 18 10 SW 10
22.09.2018 15:00:00 17,0 5,0 11 6 W 10
22.09.2018 14:00:00 17,0 6,0 11 6 SW 10
22.09.2018 13:00:00 16,0 8,0 15 8 SSW 10
22.09.2018 12:00:00 16,0 9,0 11 6 WSW 10
22.09.2018 11:00:00 15,0 10,0 16 9 SSW 10
22.09.2018 10:00:00 14,0 10,0 13 7 SSW 10
22.09.2018 09:00:00 11,0 10,0 8 4 SSW 10
22.09.2018 08:00:00 10,0 9,0 9 5 SSW 10
22.09.2018 07:00:00 11,0 9,0 9 5 SW 10
22.09.2018 06:00:00 11,0 9,0 9 5 SSW 10
22.09.2018 05:00:00 11,0 9,0 9 5 SW 10
22.09.2018 04:00:00 12,0 9,0 13 7 SSW 10
22.09.2018 03:00:00 12,0 9,0 16 9 S 10
22.09.2018 02:00:00 12,0 10,0 9 5 SW 10
22.09.2018 01:00:00 12,0 9,0 11 6 SSW 10
22.09.2018 00:00:00 12,0 10,0 9 5 S 10
21.09.2018 23:00:00 13,0 11,0 18 10 S 10
21.09.2018 22:00:00 13,0 11,0 16 9 S 10
21.09.2018 21:00:00 12,0 11,0 13 7 SW 10
21.09.2018 20:00:00 13,0 11,0 15 8 SSW 10
21.09.2018 19:00:00 13,0 12,0 22 12 S 10
21.09.2018 18:00:00 13,0 12,0 15 8 WSW 7
21.09.2018 17:00:00 17,0 14,0 26 14 W 10
21.09.2018 16:00:00 25,0 9,0 22 12 SW 10
21.09.2018 15:00:00 25,0 8,0 18 10 WSW 10
21.09.2018 14:00:00 26,0 13,0 21 11 WSW 10
21.09.2018 13:00:00 25,0 14,0 18 10 SW 10
21.09.2018 12:00:00 25,0 14,0 26 14 SW 10
21.09.2018 11:00:00 26,0 13,0 34 18 SSW 10
21.09.2018 10:00:00 22,0 14,0 16 9 SW 10
21.09.2018 09:00:00 20,0 14,0 16 9 SW 10
21.09.2018 08:00:00 17,0 14,0 9 5 SW 10
21.09.2018 07:00:00 15,0 13,0 11 6 SW 10
21.09.2018 06:00:00 14,0 12,0 4 2 - 10
21.09.2018 05:00:00 15,0 13,0 8 4 SSW 10
21.09.2018 04:00:00 15,0 12,0 5 3 SE 10
21.09.2018 03:00:00 14,0 12,0 8 4 SW 10
21.09.2018 02:00:00 14,0 12,0 0 0 N 10
21.09.2018 01:00:00 15,0 13,0 0 0 N 10
21.09.2018 00:00:00 16,0 13,0 0 0 N 10
20.09.2018 23:00:00 17,0 13,0 2 1 - 10
20.09.2018 22:00:00 19,0 13,0 0 0 N 10
20.09.2018 21:00:00 20,0 13,0 2 1 - 10
20.09.2018 20:00:00 23,0 13,0 0 0 N 10
20.09.2018 19:00:00 28,0 12,0 4 2 W 10
20.09.2018 18:00:00 29,0 9,0 5 3 W 10
20.09.2018 17:00:00 30,0 10,0 11 6 W 10
20.09.2018 16:00:00 29,0 11,0 9 5 W 10
20.09.2018 15:00:00 28,0 12,0 11 6 W 10
20.09.2018 14:00:00 28,0 12,0 11 6 W 10
20.09.2018 13:00:00 27,0 13,0 11 6 SW 10
20.09.2018 12:00:00 25,0 14,0 11 6 SSW 10
20.09.2018 11:00:00 23,0 14,0 9 5 W 10
20.09.2018 10:00:00 21,0 15,0 13 7 SSW 10
20.09.2018 09:00:00 16,0 14,0 9 5 S 10
20.09.2018 08:00:00 15,0 13,0 9 5 S 10
20.09.2018 07:00:00 14,0 13,0 5 3 SSW 10
20.09.2018 06:00:00 14,0 13,0 5 3 SW 10
20.09.2018 05:00:00 15,0 14,0 5 3 S 10
20.09.2018 04:00:00 16,0 14,0 8 4 S 10
20.09.2018 03:00:00 16,0 14,0 9 5 SSW 10
20.09.2018 02:00:00 17,0 14,0 9 5 SSW 10
20.09.2018 01:00:00 17,0 14,0 13 7 SE 10
20.09.2018 00:00:00 17,0 15,0 4 2 - 10
19.09.2018 23:00:00 18,0 14,0 2 1 SSW 10
19.09.2018 22:00:00 20,0 15,0 2 1 S 10
19.09.2018 21:00:00 22,0 14,0 4 2 SSE 10
19.09.2018 20:00:00 24,0 14,0 0 0 N 10
19.09.2018 19:00:00 29,0 13,0 4 2 - 10
19.09.2018 18:00:00 29,0 11,0 8 4 W 10
19.09.2018 17:00:00 30,0 11,0 8 4 W 10
19.09.2018 16:00:00 29,0 11,0 11 6 W 10
19.09.2018 15:00:00 29,0 12,0 9 5 W 10
19.09.2018 14:00:00 28,0 13,0 11 6 W 10
19.09.2018 13:00:00 27,0 13,0 9 5 WNW 10
19.09.2018 12:00:00 25,0 14,0 8 4 WNW 10
19.09.2018 11:00:00 23,0 15,0 8 4 - 10
19.09.2018 10:00:00 20,0 14,0 13 7 SSW 10
19.09.2018 09:00:00 17,0 14,0 5 3 S 10
19.09.2018 08:00:00 14,0 13,0 5 3 S 10
19.09.2018 07:00:00 14,0 13,0 4 2 W 10
19.09.2018 06:00:00 15,0 13,0 8 4 SW 10
19.09.2018 05:00:00 15,0 13,0 9 5 S 10
19.09.2018 04:00:00 14,0 12,0 2 1 - 10
19.09.2018 03:00:00 15,0 13,0 2 1 - 10
19.09.2018 02:00:00 17,0 12,0 4 2 - 10
19.09.2018 01:00:00 19,0 13,0 8 4 S 10
19.09.2018 00:00:00 20,0 13,0 16 9 SSW 10
18.09.2018 23:00:00 20,0 13,0 5 3 WSW 10
18.09.2018 22:00:00 21,0 14,0 9 5 SSW 10
18.09.2018 21:00:00 21,0 14,0 4 2 S 10
18.09.2018 20:00:00 23,0 14,0 8 4 SSW 10
18.09.2018 19:00:00 24,0 13,0 8 4 SW 10
18.09.2018 18:00:00 26,0 13,0 15 8 WSW 10
18.09.2018 17:00:00 30,0 14,0 9 5 W 10
18.09.2018 16:00:00 30,0 13,0 13 7 W 10
18.09.2018 15:00:00 29,0 13,0 13 7 SW 10
18.09.2018 14:00:00 29,0 13,0 13 7 W 10
18.09.2018 13:00:00 28,0 13,0 18 10 SW 10
18.09.2018 12:00:00 26,0 13,0 21 11 SW 10
18.09.2018 11:00:00 22,0 13,0 5 3 - 10
18.09.2018 10:00:00 18,0 12,0 8 4 SSW 10
18.09.2018 09:00:00 15,0 12,0 4 2 - 10
18.09.2018 08:00:00 10,0 10,0 2 1 - 10
18.09.2018 07:00:00 11,0 10,0 2 1 - 10
18.09.2018 06:00:00 10,0 9,0 4 2 SW 10
18.09.2018 05:00:00 11,0 11,0 4 2 S 10
18.09.2018 04:00:00 11,0 11,0 0 0 N 10
18.09.2018 03:00:00 12,0 11,0 0 0 N 10
18.09.2018 02:00:00 13,0 12,0 5 3 SE 10
18.09.2018 01:00:00 13,0 11,0 5 3 SW 10
18.09.2018 00:00:00 15,0 12,0 4 2 N 10
17.09.2018 23:00:00 17,0 11,0 5 3 NNE 10
17.09.2018 22:00:00 18,0 11,0 5 3 NNE 10
17.09.2018 21:00:00 20,0 12,0 4 2 ENE 10
17.09.2018 20:00:00 21,0 14,0 4 2 N 10
17.09.2018 19:00:00 27,0 10,0 4 2 - 10
17.09.2018 18:00:00 28,0 9,0 5 3 NW 10
17.09.2018 17:00:00 28,0 9,0 9 5 WNW 10
17.09.2018 16:00:00 28,0 9,0 9 5 NW 10
17.09.2018 15:00:00 28,0 9,0 8 4 WNW 10
17.09.2018 14:00:00 26,0 12,0 5 3 NW 10
17.09.2018 13:00:00 25,0 12,0 5 3 - 10
17.09.2018 12:00:00 22,0 15,0 8 4 NNW 10
17.09.2018 11:00:00 19,0 14,0 5 3 S 10
17.09.2018 10:00:00 17,0 13,0 2 1 - 10
17.09.2018 09:00:00 13,0 13,0 0 0 N 10
17.09.2018 08:00:00 9,0 9,0 4 2 S 10
17.09.2018 07:00:00 9,0 9,0 4 2 SSW 10
17.09.2018 06:00:00 10,0 9,0 0 0 N 10
17.09.2018 05:00:00 11,0 10,0 0 0 N 8
17.09.2018 04:00:00 11,0 11,0 4 2 - 10
17.09.2018 03:00:00 12,0 12,0 4 2 SW 10
17.09.2018 02:00:00 11,0 10,0 4 2 S 10
17.09.2018 01:00:00 12,0 12,0 4 2 SSE 10
17.09.2018 00:00:00 13,0 12,0 2 1 - 10
16.09.2018 23:00:00 14,0 13,0 2 1 - 10
16.09.2018 22:00:00 15,0 13,0 0 0 N 10
16.09.2018 21:00:00 18,0 13,0 4 2 - 10
16.09.2018 20:00:00 20,0 15,0 2 1 N 10
16.09.2018 19:00:00 24,0 13,0 2 1 - 10
16.09.2018 18:00:00 25,0 11,0 8 4 NW 10
16.09.2018 17:00:00 26,0 9,0 5 3 - 10
16.09.2018 16:00:00 25,0 9,0 5 3 - 10

tt = Température de l'air
td = dewpoint
ff = Vitesse du vent
dd = Direction du vent
vv = visibility

stations d'obs. à proximité